sensor_id;sensor_type;location;lat;lon;timestamp;temperature;humidity
18291;DHT22;9271;48.590;8.866;2023-08-07T00:02:23;12.80;99.90
18291;DHT22;9271;48.590;8.866;2023-08-07T00:04:50;12.80;99.90
18291;DHT22;9271;48.590;8.866;2023-08-07T00:07:19;12.90;99.90
18291;DHT22;9271;48.590;8.866;2023-08-07T00:09:56;12.90;99.90
18291;DHT22;9271;48.590;8.866;2023-08-07T00:12:23;13.00;99.90
18291;DHT22;9271;48.590;8.866;2023-08-07T00:14:50;13.20;99.90
18291;DHT22;9271;48.590;8.866;2023-08-07T00:17:16;13.00;99.90
18291;DHT22;9271;48.590;8.866;2023-08-07T00:19:43;12.80;99.90
18291;DHT22;9271;48.590;8.866;2023-08-07T00:22:10;12.90;99.90
18291;DHT22;9271;48.590;8.866;2023-08-07T00:24:36;12.90;99.90
18291;DHT22;9271;48.590;8.866;2023-08-07T00:27:05;12.80;99.90
18291;DHT22;9271;48.590;8.866;2023-08-07T00:29:32;12.90;99.90
18291;DHT22;9271;48.590;8.866;2023-08-07T00:31:59;13.10;99.90
18291;DHT22;9271;48.590;8.866;2023-08-07T00:34:28;13.10;99.90
18291;DHT22;9271;48.590;8.866;2023-08-07T00:36:54;12.90;99.90
18291;DHT22;9271;48.590;8.866;2023-08-07T00:39:21;12.70;99.90
18291;DHT22;9271;48.590;8.866;2023-08-07T00:41:48;12.40;99.90
18291;DHT22;9271;48.590;8.866;2023-08-07T00:44:16;12.30;99.90
18291;DHT22;9271;48.590;8.866;2023-08-07T00:46:43;12.30;99.90
18291;DHT22;9271;48.590;8.866;2023-08-07T00:49:11;12.40;99.90
18291;DHT22;9271;48.590;8.866;2023-08-07T00:51:39;12.60;99.90
18291;DHT22;9271;48.590;8.866;2023-08-07T00:54:07;12.60;99.90
18291;DHT22;9271;48.590;8.866;2023-08-07T00:56:36;12.80;99.90
18291;DHT22;9271;48.590;8.866;2023-08-07T00:59:04;12.70;99.90
18291;DHT22;9271;48.590;8.866;2023-08-07T01:01:32;12.70;99.90
18291;DHT22;9271;48.590;8.866;2023-08-07T01:03:58;12.60;99.90
18291;DHT22;9271;48.590;8.866;2023-08-07T01:06:25;12.60;99.90
18291;DHT22;9271;48.590;8.866;2023-08-07T01:08:52;12.70;99.90
18291;DHT22;9271;48.590;8.866;2023-08-07T01:11:28;12.70;99.90
18291;DHT22;9271;48.590;8.866;2023-08-07T01:14:02;12.60;99.90
18291;DHT22;9271;48.590;8.866;2023-08-07T01:16:37;12.80;99.90
18291;DHT22;9271;48.590;8.866;2023-08-07T01:19:12;12.70;99.90
18291;DHT22;9271;48.590;8.866;2023-08-07T01:21:48;12.80;99.90
18291;DHT22;9271;48.590;8.866;2023-08-07T01:24:14;12.60;99.90
18291;DHT22;9271;48.590;8.866;2023-08-07T01:26:43;12.60;99.90
18291;DHT22;9271;48.590;8.866;2023-08-07T01:29:17;12.70;99.90
18291;DHT22;9271;48.590;8.866;2023-08-07T01:31:49;12.60;99.90
18291;DHT22;9271;48.590;8.866;2023-08-07T01:34:22;12.60;99.90
18291;DHT22;9271;48.590;8.866;2023-08-07T01:36:53;12.80;99.90
18291;DHT22;9271;48.590;8.866;2023-08-07T01:39:22;12.90;99.90
18291;DHT22;9271;48.590;8.866;2023-08-07T01:41:50;12.90;99.90
18291;DHT22;9271;48.590;8.866;2023-08-07T01:44:16;13.20;99.90
18291;DHT22;9271;48.590;8.866;2023-08-07T01:46:43;13.30;99.90
18291;DHT22;9271;48.590;8.866;2023-08-07T01:49:10;13.10;99.90
18291;DHT22;9271;48.590;8.866;2023-08-07T01:51:36;13.30;99.90
18291;DHT22;9271;48.590;8.866;2023-08-07T01:54:04;13.50;99.90
18291;DHT22;9271;48.590;8.866;2023-08-07T01:56:31;13.30;99.90
18291;DHT22;9271;48.590;8.866;2023-08-07T01:58:57;13.10;99.90
18291;DHT22;9271;48.590;8.866;2023-08-07T02:01:24;13.00;99.90
18291;DHT22;9271;48.590;8.866;2023-08-07T02:03:51;12.90;99.90
18291;DHT22;9271;48.590;8.866;2023-08-07T02:06:17;13.00;99.90
18291;DHT22;9271;48.590;8.866;2023-08-07T02:08:44;13.10;99.90
18291;DHT22;9271;48.590;8.866;2023-08-07T02:11:12;13.10;99.90
18291;DHT22;9271;48.590;8.866;2023-08-07T02:13:39;13.10;99.90
18291;DHT22;9271;48.590;8.866;2023-08-07T02:16:05;13.20;99.90
18291;DHT22;9271;48.590;8.866;2023-08-07T02:18:32;13.10;99.90
18291;DHT22;9271;48.590;8.866;2023-08-07T02:20:58;13.00;99.90
18291;DHT22;9271;48.590;8.866;2023-08-07T02:23:25;12.90;99.90
18291;DHT22;9271;48.590;8.866;2023-08-07T02:25:53;12.70;99.90
18291;DHT22;9271;48.590;8.866;2023-08-07T02:28:21;12.60;99.90
18291;DHT22;9271;48.590;8.866;2023-08-07T02:30:48;12.60;99.90
18291;DHT22;9271;48.590;8.866;2023-08-07T02:33:16;12.90;99.90
18291;DHT22;9271;48.590;8.866;2023-08-07T02:35:43;12.90;99.90
18291;DHT22;9271;48.590;8.866;2023-08-07T02:38:10;12.90;99.90
18291;DHT22;9271;48.590;8.866;2023-08-07T02:40:37;13.00;99.90
18291;DHT22;9271;48.590;8.866;2023-08-07T02:43:04;13.10;99.90
18291;DHT22;9271;48.590;8.866;2023-08-07T02:45:32;13.30;99.90
18291;DHT22;9271;48.590;8.866;2023-08-07T02:48:00;13.20;99.90
18291;DHT22;9271;48.590;8.866;2023-08-07T02:50:27;13.10;99.90
18291;DHT22;9271;48.590;8.866;2023-08-07T02:52:57;12.90;99.90
18291;DHT22;9271;48.590;8.866;2023-08-07T02:55:24;13.00;99.90
18291;DHT22;9271;48.590;8.866;2023-08-07T02:57:51;13.10;99.90
18291;DHT22;9271;48.590;8.866;2023-08-07T03:00:17;13.10;99.90
18291;DHT22;9271;48.590;8.866;2023-08-07T03:02:45;13.30;99.90
18291;DHT22;9271;48.590;8.866;2023-08-07T03:05:12;13.10;99.90
18291;DHT22;9271;48.590;8.866;2023-08-07T03:07:38;12.90;99.90
18291;DHT22;9271;48.590;8.866;2023-08-07T03:10:06;12.90;99.90
18291;DHT22;9271;48.590;8.866;2023-08-07T03:12:33;12.90;99.90
18291;DHT22;9271;48.590;8.866;2023-08-07T03:15:00;12.70;99.90
18291;DHT22;9271;48.590;8.866;2023-08-07T03:17:27;12.80;99.90
18291;DHT22;9271;48.590;8.866;2023-08-07T03:19:55;12.80;99.90
18291;DHT22;9271;48.590;8.866;2023-08-07T03:22:21;12.80;99.90
18291;DHT22;9271;48.590;8.866;2023-08-07T03:24:48;12.70;99.90
18291;DHT22;9271;48.590;8.866;2023-08-07T03:27:15;12.60;99.90
18291;DHT22;9271;48.590;8.866;2023-08-07T03:29:41;12.60;99.90
18291;DHT22;9271;48.590;8.866;2023-08-07T03:32:09;12.70;99.90
18291;DHT22;9271;48.590;8.866;2023-08-07T03:34:35;12.60;99.90
18291;DHT22;9271;48.590;8.866;2023-08-07T03:37:04;12.90;99.90
18291;DHT22;9271;48.590;8.866;2023-08-07T03:39:30;13.10;99.90
18291;DHT22;9271;48.590;8.866;2023-08-07T03:41:57;12.80;99.90
18291;DHT22;9271;48.590;8.866;2023-08-07T03:44:24;12.40;99.90
18291;DHT22;9271;48.590;8.866;2023-08-07T03:46:50;12.40;99.90
18291;DHT22;9271;48.590;8.866;2023-08-07T03:49:17;12.50;99.90
18291;DHT22;9271;48.590;8.866;2023-08-07T03:51:44;12.60;99.90
18291;DHT22;9271;48.590;8.866;2023-08-07T03:54:12;12.50;99.90
18291;DHT22;9271;48.590;8.866;2023-08-07T03:56:38;12.60;99.90
18291;DHT22;9271;48.590;8.866;2023-08-07T03:59:06;12.80;99.90
18291;DHT22;9271;48.590;8.866;2023-08-07T04:01:32;12.90;99.90
18291;DHT22;9271;48.590;8.866;2023-08-07T04:03:59;12.40;99.90
18291;DHT22;9271;48.590;8.866;2023-08-07T04:06:26;12.40;99.90
18291;DHT22;9271;48.590;8.866;2023-08-07T04:08:54;12.50;99.90
18291;DHT22;9271;48.590;8.866;2023-08-07T04:11:22;12.60;99.90
18291;DHT22;9271;48.590;8.866;2023-08-07T04:13:48;12.60;99.90
18291;DHT22;9271;48.590;8.866;2023-08-07T04:16:15;12.70;99.90
18291;DHT22;9271;48.590;8.866;2023-08-07T04:18:42;12.70;99.90
18291;DHT22;9271;48.590;8.866;2023-08-07T04:21:09;12.70;99.90
18291;DHT22;9271;48.590;8.866;2023-08-07T04:23:35;12.70;99.90
18291;DHT22;9271;48.590;8.866;2023-08-07T04:26:03;12.60;99.90
18291;DHT22;9271;48.590;8.866;2023-08-07T04:28:31;12.80;99.90
18291;DHT22;9271;48.590;8.866;2023-08-07T04:30:57;12.80;99.90
18291;DHT22;9271;48.590;8.866;2023-08-07T04:33:24;12.80;99.90
18291;DHT22;9271;48.590;8.866;2023-08-07T04:35:51;12.80;99.90
18291;DHT22;9271;48.590;8.866;2023-08-07T04:38:17;12.90;99.90
18291;DHT22;9271;48.590;8.866;2023-08-07T04:40:45;12.80;99.90
18291;DHT22;9271;48.590;8.866;2023-08-07T04:43:12;12.90;99.90
18291;DHT22;9271;48.590;8.866;2023-08-07T04:45:40;12.90;99.90
18291;DHT22;9271;48.590;8.866;2023-08-07T04:48:07;12.90;99.90
18291;DHT22;9271;48.590;8.866;2023-08-07T04:50:34;12.90;99.90
18291;DHT22;9271;48.590;8.866;2023-08-07T04:53:01;12.90;99.90
18291;DHT22;9271;48.590;8.866;2023-08-07T04:55:27;13.10;99.90
18291;DHT22;9271;48.590;8.866;2023-08-07T04:57:54;13.00;99.90
18291;DHT22;9271;48.590;8.866;2023-08-07T05:00:21;12.80;99.90
18291;DHT22;9271;48.590;8.866;2023-08-07T05:02:49;12.80;99.90
18291;DHT22;9271;48.590;8.866;2023-08-07T05:05:16;12.90;99.90
18291;DHT22;9271;48.590;8.866;2023-08-07T05:07:44;13.00;99.90
18291;DHT22;9271;48.590;8.866;2023-08-07T05:10:11;13.20;99.90
18291;DHT22;9271;48.590;8.866;2023-08-07T05:12:38;13.30;99.90
18291;DHT22;9271;48.590;8.866;2023-08-07T05:15:05;13.40;99.90
18291;DHT22;9271;48.590;8.866;2023-08-07T05:17:32;13.50;99.90
18291;DHT22;9271;48.590;8.866;2023-08-07T05:20:00;13.60;99.90
18291;DHT22;9271;48.590;8.866;2023-08-07T05:22:27;13.50;99.90
18291;DHT22;9271;48.590;8.866;2023-08-07T05:24:53;13.60;99.90
18291;DHT22;9271;48.590;8.866;2023-08-07T05:27:20;13.40;99.90
18291;DHT22;9271;48.590;8.866;2023-08-07T05:29:46;13.50;99.90
18291;DHT22;9271;48.590;8.866;2023-08-07T05:32:14;13.50;99.90
18291;DHT22;9271;48.590;8.866;2023-08-07T05:34:41;13.60;99.90
18291;DHT22;9271;48.590;8.866;2023-08-07T05:37:09;13.90;99.90
18291;DHT22;9271;48.590;8.866;2023-08-07T05:39:36;14.10;99.90
18291;DHT22;9271;48.590;8.866;2023-08-07T05:42:03;14.10;99.90
18291;DHT22;9271;48.590;8.866;2023-08-07T05:44:30;13.90;99.90
18291;DHT22;9271;48.590;8.866;2023-08-07T05:46:57;13.70;99.90
18291;DHT22;9271;48.590;8.866;2023-08-07T05:49:23;13.80;99.90
18291;DHT22;9271;48.590;8.866;2023-08-07T05:51:50;13.70;99.90
18291;DHT22;9271;48.590;8.866;2023-08-07T05:54:18;14.00;99.90
18291;DHT22;9271;48.590;8.866;2023-08-07T05:56:45;14.20;99.90
18291;DHT22;9271;48.590;8.866;2023-08-07T05:59:12;14.50;99.90
18291;DHT22;9271;48.590;8.866;2023-08-07T06:01:38;14.70;99.90
18291;DHT22;9271;48.590;8.866;2023-08-07T06:04:06;14.80;99.90
18291;DHT22;9271;48.590;8.866;2023-08-07T06:06:34;14.80;99.90
18291;DHT22;9271;48.590;8.866;2023-08-07T06:09:01;15.00;99.90
18291;DHT22;9271;48.590;8.866;2023-08-07T06:11:30;15.10;99.90
18291;DHT22;9271;48.590;8.866;2023-08-07T06:13:57;15.10;99.90
18291;DHT22;9271;48.590;8.866;2023-08-07T06:16:23;15.30;99.90
18291;DHT22;9271;48.590;8.866;2023-08-07T06:18:50;15.40;99.90
18291;DHT22;9271;48.590;8.866;2023-08-07T06:21:17;15.50;99.90
18291;DHT22;9271;48.590;8.866;2023-08-07T06:23:44;15.80;99.90
18291;DHT22;9271;48.590;8.866;2023-08-07T06:26:12;15.70;99.90
18291;DHT22;9271;48.590;8.866;2023-08-07T06:28:41;15.70;99.90
18291;DHT22;9271;48.590;8.866;2023-08-07T06:31:09;15.80;99.90
18291;DHT22;9271;48.590;8.866;2023-08-07T06:33:36;16.00;99.90
18291;DHT22;9271;48.590;8.866;2023-08-07T06:36:03;15.60;99.90
18291;DHT22;9271;48.590;8.866;2023-08-07T06:38:30;15.80;99.90
18291;DHT22;9271;48.590;8.866;2023-08-07T06:40:57;16.00;99.90
18291;DHT22;9271;48.590;8.866;2023-08-07T06:43:23;15.90;99.90
18291;DHT22;9271;48.590;8.866;2023-08-07T06:45:53;16.00;99.90
18291;DHT22;9271;48.590;8.866;2023-08-07T06:48:20;16.20;99.90
18291;DHT22;9271;48.590;8.866;2023-08-07T06:50:47;16.40;99.90
18291;DHT22;9271;48.590;8.866;2023-08-07T06:53:13;16.20;99.90
18291;DHT22;9271;48.590;8.866;2023-08-07T06:55:41;16.30;99.90
18291;DHT22;9271;48.590;8.866;2023-08-07T06:58:07;16.40;99.90
18291;DHT22;9271;48.590;8.866;2023-08-07T07:00:34;16.50;99.30
18291;DHT22;9271;48.590;8.866;2023-08-07T07:03:03;16.10;99.90
18291;DHT22;9271;48.590;8.866;2023-08-07T07:05:30;15.90;99.90
18291;DHT22;9271;48.590;8.866;2023-08-07T07:07:58;15.80;99.90
18291;DHT22;9271;48.590;8.866;2023-08-07T07:10:24;16.00;99.90
18291;DHT22;9271;48.590;8.866;2023-08-07T07:12:51;16.20;99.90
18291;DHT22;9271;48.590;8.866;2023-08-07T07:15:18;16.40;99.90
18291;DHT22;9271;48.590;8.866;2023-08-07T07:17:45;16.60;99.90
18291;DHT22;9271;48.590;8.866;2023-08-07T07:20:13;16.90;99.70
18291;DHT22;9271;48.590;8.866;2023-08-07T07:22:40;17.30;99.50
18291;DHT22;9271;48.590;8.866;2023-08-07T07:25:07;17.70;99.10
18291;DHT22;9271;48.590;8.866;2023-08-07T07:27:34;18.10;98.10
18291;DHT22;9271;48.590;8.866;2023-08-07T07:30:01;18.90;95.60
18291;DHT22;9271;48.590;8.866;2023-08-07T07:32:27;18.30;95.90
18291;DHT22;9271;48.590;8.866;2023-08-07T07:34:54;17.20;97.30
18291;DHT22;9271;48.590;8.866;2023-08-07T07:37:22;17.00;97.90
18291;DHT22;9271;48.590;8.866;2023-08-07T07:39:49;17.90;97.10
18291;DHT22;9271;48.590;8.866;2023-08-07T07:42:15;18.80;95.60
18291;DHT22;9271;48.590;8.866;2023-08-07T07:44:42;20.40;95.40
18291;DHT22;9271;48.590;8.866;2023-08-07T07:47:09;21.50;92.10
18291;DHT22;9271;48.590;8.866;2023-08-07T07:49:35;20.80;91.30
18291;DHT22;9271;48.590;8.866;2023-08-07T07:52:02;19.40;93.20
18291;DHT22;9271;48.590;8.866;2023-08-07T07:54:31;18.70;94.30
18291;DHT22;9271;48.590;8.866;2023-08-07T07:56:57;18.20;94.80
18291;DHT22;9271;48.590;8.866;2023-08-07T07:59:24;17.40;95.40
18291;DHT22;9271;48.590;8.866;2023-08-07T08:01:50;17.30;95.40
18291;DHT22;9271;48.590;8.866;2023-08-07T08:04:17;17.40;96.30
18291;DHT22;9271;48.590;8.866;2023-08-07T08:06:44;18.40;94.10
18291;DHT22;9271;48.590;8.866;2023-08-07T08:09:13;19.20;93.00
18291;DHT22;9271;48.590;8.866;2023-08-07T08:11:42;19.40;92.80
18291;DHT22;9271;48.590;8.866;2023-08-07T08:14:08;20.00;91.40
18291;DHT22;9271;48.590;8.866;2023-08-07T08:16:35;20.20;90.50
18291;DHT22;9271;48.590;8.866;2023-08-07T08:19:02;20.30;90.00
18291;DHT22;9271;48.590;8.866;2023-08-07T08:21:28;20.70;88.30
18291;DHT22;9271;48.590;8.866;2023-08-07T08:23:56;20.20;89.10
18291;DHT22;9271;48.590;8.866;2023-08-07T08:26:22;19.60;90.00
18291;DHT22;9271;48.590;8.866;2023-08-07T08:28:50;20.70;90.40
18291;DHT22;9271;48.590;8.866;2023-08-07T08:31:17;20.50;87.10
18291;DHT22;9271;48.590;8.866;2023-08-07T08:33:46;20.30;87.60
18291;DHT22;9271;48.590;8.866;2023-08-07T08:36:13;19.90;89.40
18291;DHT22;9271;48.590;8.866;2023-08-07T08:38:39;19.40;89.60
18291;DHT22;9271;48.590;8.866;2023-08-07T08:41:07;19.40;90.30
18291;DHT22;9271;48.590;8.866;2023-08-07T08:43:35;18.60;90.00
18291;DHT22;9271;48.590;8.866;2023-08-07T08:46:04;19.00;89.10
18291;DHT22;9271;48.590;8.866;2023-08-07T08:48:34;20.20;89.10
18291;DHT22;9271;48.590;8.866;2023-08-07T08:51:02;22.00;85.00
18291;DHT22;9271;48.590;8.866;2023-08-07T08:53:31;22.10;82.20
18291;DHT22;9271;48.590;8.866;2023-08-07T08:55:59;23.00;81.70
18291;DHT22;9271;48.590;8.866;2023-08-07T08:58:26;23.40;80.40
18291;DHT22;9271;48.590;8.866;2023-08-07T09:00:52;23.50;76.40
18291;DHT22;9271;48.590;8.866;2023-08-07T09:03:21;22.90;80.10
18291;DHT22;9271;48.590;8.866;2023-08-07T09:05:49;23.10;74.50
18291;DHT22;9271;48.590;8.866;2023-08-07T09:08:19;24.30;75.30
18291;DHT22;9271;48.590;8.866;2023-08-07T09:10:45;25.30;71.30
18291;DHT22;9271;48.590;8.866;2023-08-07T09:13:14;25.10;67.60
18291;DHT22;9271;48.590;8.866;2023-08-07T09:15:43;24.50;67.30
18291;DHT22;9271;48.590;8.866;2023-08-07T09:18:15;22.60;73.60
18291;DHT22;9271;48.590;8.866;2023-08-07T09:20:44;23.30;76.10
18291;DHT22;9271;48.590;8.866;2023-08-07T09:23:11;23.10;70.70
18291;DHT22;9271;48.590;8.866;2023-08-07T09:25:38;22.00;76.00
18291;DHT22;9271;48.590;8.866;2023-08-07T09:28:05;22.40;73.80
18291;DHT22;9271;48.590;8.866;2023-08-07T09:30:34;22.40;75.60
18291;DHT22;9271;48.590;8.866;2023-08-07T09:33:02;22.30;75.70
18291;DHT22;9271;48.590;8.866;2023-08-07T09:35:30;23.30;70.50
18291;DHT22;9271;48.590;8.866;2023-08-07T09:37:58;23.70;71.00
18291;DHT22;9271;48.590;8.866;2023-08-07T09:40:25;23.90;65.60
18291;DHT22;9271;48.590;8.866;2023-08-07T09:42:53;23.50;66.80
18291;DHT22;9271;48.590;8.866;2023-08-07T09:45:20;24.60;68.30
18291;DHT22;9271;48.590;8.866;2023-08-07T09:47:49;25.00;65.80
18291;DHT22;9271;48.590;8.866;2023-08-07T09:50:22;24.10;67.50
18291;DHT22;9271;48.590;8.866;2023-08-07T09:52:49;25.40;65.30
18291;DHT22;9271;48.590;8.866;2023-08-07T09:55:17;26.40;62.00
18291;DHT22;9271;48.590;8.866;2023-08-07T09:57:44;24.70;65.00
18291;DHT22;9271;48.590;8.866;2023-08-07T10:00:12;24.50;68.40
18291;DHT22;9271;48.590;8.866;2023-08-07T10:02:40;25.40;62.70
18291;DHT22;9271;48.590;8.866;2023-08-07T10:05:09;26.10;60.80
18291;DHT22;9271;48.590;8.866;2023-08-07T10:07:36;26.00;63.10
18291;DHT22;9271;48.590;8.866;2023-08-07T10:10:04;27.20;61.40
18291;DHT22;9271;48.590;8.866;2023-08-07T10:12:33;28.20;57.70
18291;DHT22;9271;48.590;8.866;2023-08-07T10:15:00;28.40;56.70
18291;DHT22;9271;48.590;8.866;2023-08-07T10:17:28;26.80;58.30
18291;DHT22;9271;48.590;8.866;2023-08-07T10:19:56;25.10;59.10
18291;DHT22;9271;48.590;8.866;2023-08-07T10:22:25;25.40;63.90
18291;DHT22;9271;48.590;8.866;2023-08-07T10:24:53;27.60;60.70
18291;DHT22;9271;48.590;8.866;2023-08-07T10:27:21;29.30;54.60
18291;DHT22;9271;48.590;8.866;2023-08-07T10:29:52;26.40;55.00
18291;DHT22;9271;48.590;8.866;2023-08-07T10:32:21;25.20;59.70
18291;DHT22;9271;48.590;8.866;2023-08-07T10:34:50;24.60;60.80
18291;DHT22;9271;48.590;8.866;2023-08-07T10:37:32;24.60;62.80
18291;DHT22;9271;48.590;8.866;2023-08-07T10:40:03;24.90;62.80
18291;DHT22;9271;48.590;8.866;2023-08-07T10:42:40;25.60;58.00
18291;DHT22;9271;48.590;8.866;2023-08-07T10:45:18;26.10;59.30
18291;DHT22;9271;48.590;8.866;2023-08-07T10:47:57;27.40;57.00
18291;DHT22;9271;48.590;8.866;2023-08-07T10:50:27;26.70;58.10
18291;DHT22;9271;48.590;8.866;2023-08-07T10:52:54;26.00;57.10
18291;DHT22;9271;48.590;8.866;2023-08-07T10:55:21;24.70;59.90
18291;DHT22;9271;48.590;8.866;2023-08-07T10:57:49;24.00;60.00
18291;DHT22;9271;48.590;8.866;2023-08-07T11:00:17;23.70;64.20
18291;DHT22;9271;48.590;8.866;2023-08-07T11:02:48;21.90;65.60
18291;DHT22;9271;48.590;8.866;2023-08-07T11:05:16;21.00;66.10
18291;DHT22;9271;48.590;8.866;2023-08-07T11:07:44;20.00;71.00
18291;DHT22;9271;48.590;8.866;2023-08-07T11:10:13;20.10;72.80
18291;DHT22;9271;48.590;8.866;2023-08-07T11:12:40;20.00;74.00
18291;DHT22;9271;48.590;8.866;2023-08-07T11:15:12;20.40;73.20
18291;DHT22;9271;48.590;8.866;2023-08-07T11:17:41;20.80;72.00
18291;DHT22;9271;48.590;8.866;2023-08-07T11:20:09;21.60;69.80
18291;DHT22;9271;48.590;8.866;2023-08-07T11:22:38;20.40;71.40
18291;DHT22;9271;48.590;8.866;2023-08-07T11:25:05;20.20;74.70
18291;DHT22;9271;48.590;8.866;2023-08-07T11:27:36;20.70;74.90
18291;DHT22;9271;48.590;8.866;2023-08-07T11:30:03;20.50;71.50
18291;DHT22;9271;48.590;8.866;2023-08-07T11:32:31;21.80;71.60
18291;DHT22;9271;48.590;8.866;2023-08-07T11:34:59;22.80;67.80
18291;DHT22;9271;48.590;8.866;2023-08-07T11:37:28;21.60;66.50
18291;DHT22;9271;48.590;8.866;2023-08-07T11:40:00;21.30;71.70
18291;DHT22;9271;48.590;8.866;2023-08-07T11:42:27;20.80;70.20
18291;DHT22;9271;48.590;8.866;2023-08-07T11:44:54;19.80;75.20
18291;DHT22;9271;48.590;8.866;2023-08-07T11:47:21;19.60;75.90
18291;DHT22;9271;48.590;8.866;2023-08-07T11:49:48;19.50;75.20
18291;DHT22;9271;48.590;8.866;2023-08-07T11:52:17;19.20;75.70
18291;DHT22;9271;48.590;8.866;2023-08-07T11:54:47;19.30;79.20
18291;DHT22;9271;48.590;8.866;2023-08-07T11:57:17;19.80;76.80
18291;DHT22;9271;48.590;8.866;2023-08-07T11:59:49;19.90;76.80
18291;DHT22;9271;48.590;8.866;2023-08-07T12:02:16;19.60;76.30
18291;DHT22;9271;48.590;8.866;2023-08-07T12:04:43;19.00;77.30
18291;DHT22;9271;48.590;8.866;2023-08-07T12:07:10;18.80;79.90
18291;DHT22;9271;48.590;8.866;2023-08-07T12:09:41;19.00;79.50
18291;DHT22;9271;48.590;8.866;2023-08-07T12:12:10;19.20;78.40
18291;DHT22;9271;48.590;8.866;2023-08-07T12:14:38;19.30;79.00
18291;DHT22;9271;48.590;8.866;2023-08-07T12:17:08;19.70;79.10
18291;DHT22;9271;48.590;8.866;2023-08-07T12:19:38;19.80;79.40
18291;DHT22;9271;48.590;8.866;2023-08-07T12:22:10;20.50;76.20
18291;DHT22;9271;48.590;8.866;2023-08-07T12:24:37;21.10;75.30
18291;DHT22;9271;48.590;8.866;2023-08-07T12:27:06;21.50;73.30
18291;DHT22;9271;48.590;8.866;2023-08-07T12:29:32;21.80;73.60
18291;DHT22;9271;48.590;8.866;2023-08-07T12:31:59;21.80;72.40
18291;DHT22;9271;48.590;8.866;2023-08-07T12:34:27;21.70;74.30
18291;DHT22;9271;48.590;8.866;2023-08-07T12:36:54;21.00;72.80
18291;DHT22;9271;48.590;8.866;2023-08-07T12:39:21;20.80;74.90
18291;DHT22;9271;48.590;8.866;2023-08-07T12:41:47;20.30;76.20
18291;DHT22;9271;48.590;8.866;2023-08-07T12:44:16;19.90;76.80
18291;DHT22;9271;48.590;8.866;2023-08-07T12:46:43;19.50;75.70
18291;DHT22;9271;48.590;8.866;2023-08-07T12:49:09;19.10;76.60
18291;DHT22;9271;48.590;8.866;2023-08-07T12:51:36;19.50;78.80
18291;DHT22;9271;48.590;8.866;2023-08-07T12:54:03;20.10;77.60
18291;DHT22;9271;48.590;8.866;2023-08-07T12:56:30;21.70;73.00
18291;DHT22;9271;48.590;8.866;2023-08-07T12:58:56;23.50;69.80
18291;DHT22;9271;48.590;8.866;2023-08-07T13:01:24;24.80;66.20
18291;DHT22;9271;48.590;8.866;2023-08-07T13:03:52;26.00;64.90
18291;DHT22;9271;48.590;8.866;2023-08-07T13:06:18;25.10;61.50
18291;DHT22;9271;48.590;8.866;2023-08-07T13:08:45;23.40;64.90
18291;DHT22;9271;48.590;8.866;2023-08-07T13:11:12;20.70;70.90
18291;DHT22;9271;48.590;8.866;2023-08-07T13:13:39;19.40;75.00
18291;DHT22;9271;48.590;8.866;2023-08-07T13:16:06;19.60;77.30
18291;DHT22;9271;48.590;8.866;2023-08-07T13:18:34;19.80;78.40
18291;DHT22;9271;48.590;8.866;2023-08-07T13:21:00;19.90;77.70
18291;DHT22;9271;48.590;8.866;2023-08-07T13:23:27;19.80;79.30
18291;DHT22;9271;48.590;8.866;2023-08-07T13:25:54;19.80;78.30
18291;DHT22;9271;48.590;8.866;2023-08-07T13:28:22;19.40;78.80
18291;DHT22;9271;48.590;8.866;2023-08-07T13:30:48;19.80;76.30
18291;DHT22;9271;48.590;8.866;2023-08-07T13:33:16;21.20;76.20
18291;DHT22;9271;48.590;8.866;2023-08-07T13:35:44;22.30;71.60
18291;DHT22;9271;48.590;8.866;2023-08-07T13:38:10;23.40;69.60
18291;DHT22;9271;48.590;8.866;2023-08-07T13:40:39;25.70;64.70
18291;DHT22;9271;48.590;8.866;2023-08-07T13:43:06;27.50;61.80
18291;DHT22;9271;48.590;8.866;2023-08-07T13:45:34;29.50;55.80
18291;DHT22;9271;48.590;8.866;2023-08-07T13:48:01;29.70;53.90
18291;DHT22;9271;48.590;8.866;2023-08-07T13:50:29;26.50;57.10
18291;DHT22;9271;48.590;8.866;2023-08-07T13:52:57;24.30;63.00
18291;DHT22;9271;48.590;8.866;2023-08-07T13:55:23;24.90;62.30
18291;DHT22;9271;48.590;8.866;2023-08-07T13:57:50;23.70;61.40
18291;DHT22;9271;48.590;8.866;2023-08-07T14:00:17;23.10;65.90
18291;DHT22;9271;48.590;8.866;2023-08-07T14:02:43;22.90;63.10
18291;DHT22;9271;48.590;8.866;2023-08-07T14:05:10;23.50;64.80
18291;DHT22;9271;48.590;8.866;2023-08-07T14:07:37;23.20;64.80
18291;DHT22;9271;48.590;8.866;2023-08-07T14:10:06;22.80;64.40
18291;DHT22;9271;48.590;8.866;2023-08-07T14:12:32;21.80;67.90
18291;DHT22;9271;48.590;8.866;2023-08-07T14:14:59;22.20;67.30
18291;DHT22;9271;48.590;8.866;2023-08-07T14:17:26;22.60;67.30
18291;DHT22;9271;48.590;8.866;2023-08-07T14:19:52;23.50;67.40
18291;DHT22;9271;48.590;8.866;2023-08-07T14:22:19;24.10;65.50
18291;DHT22;9271;48.590;8.866;2023-08-07T14:24:46;22.30;64.50
18291;DHT22;9271;48.590;8.866;2023-08-07T14:27:14;20.50;71.40
18291;DHT22;9271;48.590;8.866;2023-08-07T14:29:40;20.30;74.20
18291;DHT22;9271;48.590;8.866;2023-08-07T14:32:07;20.10;73.80
18291;DHT22;9271;48.590;8.866;2023-08-07T14:34:34;20.20;75.30
18291;DHT22;9271;48.590;8.866;2023-08-07T14:37:01;20.20;73.20
18291;DHT22;9271;48.590;8.866;2023-08-07T14:39:27;20.30;73.10
18291;DHT22;9271;48.590;8.866;2023-08-07T14:41:54;20.50;74.20
18291;DHT22;9271;48.590;8.866;2023-08-07T14:44:22;20.50;74.60
18291;DHT22;9271;48.590;8.866;2023-08-07T14:46:49;21.00;74.90
18291;DHT22;9271;48.590;8.866;2023-08-07T14:49:16;21.60;74.20
18291;DHT22;9271;48.590;8.866;2023-08-07T14:51:42;22.20;71.80
18291;DHT22;9271;48.590;8.866;2023-08-07T14:54:09;22.80;70.80
18291;DHT22;9271;48.590;8.866;2023-08-07T14:56:35;23.00;72.40
18291;DHT22;9271;48.590;8.866;2023-08-07T14:59:02;23.20;69.70
18291;DHT22;9271;48.590;8.866;2023-08-07T15:01:30;25.20;68.50
18291;DHT22;9271;48.590;8.866;2023-08-07T15:03:57;25.70;62.20
18291;DHT22;9271;48.590;8.866;2023-08-07T15:06:23;24.30;67.00
18291;DHT22;9271;48.590;8.866;2023-08-07T15:08:50;24.00;65.10
18291;DHT22;9271;48.590;8.866;2023-08-07T15:11:17;22.40;66.70
18291;DHT22;9271;48.590;8.866;2023-08-07T15:13:43;23.30;67.90
18291;DHT22;9271;48.590;8.866;2023-08-07T15:16:10;24.20;64.90
18291;DHT22;9271;48.590;8.866;2023-08-07T15:18:38;24.70;65.50
18291;DHT22;9271;48.590;8.866;2023-08-07T15:21:05;24.50;65.70
18291;DHT22;9271;48.590;8.866;2023-08-07T15:23:31;24.00;63.80
18291;DHT22;9271;48.590;8.866;2023-08-07T15:25:58;23.70;62.60
18291;DHT22;9271;48.590;8.866;2023-08-07T15:28:25;23.10;64.40
18291;DHT22;9271;48.590;8.866;2023-08-07T15:30:51;23.10;65.00
18291;DHT22;9271;48.590;8.866;2023-08-07T15:33:18;23.50;64.00
18291;DHT22;9271;48.590;8.866;2023-08-07T15:35:46;23.00;65.60
18291;DHT22;9271;48.590;8.866;2023-08-07T15:38:13;22.00;66.60
18291;DHT22;9271;48.590;8.866;2023-08-07T15:40:40;21.20;69.20
18291;DHT22;9271;48.590;8.866;2023-08-07T15:43:07;20.60;72.20
18291;DHT22;9271;48.590;8.866;2023-08-07T15:45:35;21.10;71.90
18291;DHT22;9271;48.590;8.866;2023-08-07T15:48:02;21.80;70.50